Time;durP1;ratioP1;P1;durP2;ratioP2;P2;SDS_P1;SDS_P2;PMS_P1;PMS_P2;Temp;Humidity;BMP_temperature;BMP_pressure;BME280_temperature;BME280_humidity;BME280_pressure;Samples;Min_cycle;Max_cycle;Signal;HPM_P1;HPM_P2
2022/05/14 00:01:36;;;;;;;8.45;1.20;;;36.90;13.50;;;;;;5020599;28;20113;-65
2022/05/14 00:04:04;;;;;;;14.40;1.63;;;37.00;14.90;;;;;;5037075;28;20053;-66
2022/05/14 00:06:32;;;;;;;20.88;1.92;;;36.90;14.50;;;;;;5032717;28;20037;-64
2022/05/14 00:09:02;;;;;;;14.75;1.63;;;36.90;14.20;;;;;;5039460;28;20029;-61
2022/05/14 00:14:13;;;;;;;14.20;1.20;;;36.90;14.20;;;;;;5031583;28;20553;-66
2022/05/14 00:16:40;;;;;;;14.18;1.10;;;36.60;13.60;;;;;;5033197;28;20033;-67
2022/05/14 00:19:07;;;;;;;37.47;2.22;;;36.60;13.30;;;;;;5031388;28;20112;-65
2022/05/14 00:21:35;;;;;;;16.85;0.95;;;36.50;13.90;;;;;;5036349;28;20048;-66
2022/05/14 00:24:02;;;;;;;6.82;1.20;;;36.50;13.30;;;;;;5031767;28;20033;-65
2022/05/14 00:26:29;;;;;;;3.63;1.10;;;36.30;13.40;;;;;;5034733;28;20025;-66
2022/05/14 00:28:55;;;;;;;9.88;1.17;;;36.30;13.50;;;;;;5036060;28;20091;-70
2022/05/14 00:31:22;;;;;;;13.50;1.38;;;36.30;14.00;;;;;;5038320;28;20029;-66
2022/05/14 00:33:48;;;;;;;11.38;1.35;;;36.30;13.90;;;;;;5038882;28;20049;-67
2022/05/14 00:36:15;;;;;;;5.15;0.90;;;36.20;13.70;;;;;;5034746;28;20017;-68
2022/05/14 00:38:41;;;;;;;12.88;1.05;;;36.20;14.20;;;;;;5033742;28;20028;-65
2022/05/14 00:41:08;;;;;;;22.30;1.60;;;36.10;14.50;;;;;;5039556;28;20025;-66
2022/05/14 00:43:51;;;;;;;5.32;1.23;;;36.10;14.70;;;;;;5032600;28;20025;-67
2022/05/14 00:46:28;;;;;;;8.02;1.33;;;36.00;14.00;;;;;;5043031;28;20033;-67
2022/05/14 00:48:57;;;;;;;9.57;1.05;;;36.00;13.90;;;;;;5031881;28;20041;-65
2022/05/14 00:51:29;;;;;;;9.32;1.20;;;35.90;13.70;;;;;;5033293;28;20450;-65
2022/05/14 00:54:04;;;;;;;5.45;1.27;;;35.90;14.50;;;;;;5033863;28;20020;-66
2022/05/14 00:56:40;;;;;;;7.70;1.10;;;35.80;13.60;;;;;;5033475;28;20051;-65
2022/05/14 00:59:10;;;;;;;5.75;1.10;;;35.70;13.50;;;;;;5033173;28;20024;-63
2022/05/14 01:01:37;;;;;;;3.00;0.80;;;35.60;13.60;;;;;;5032543;28;20123;-61
2022/05/14 01:04:05;;;;;;;5.82;0.98;;;35.60;13.90;;;;;;5037700;28;20055;-62
2022/05/14 01:06:33;;;;;;;40.28;2.65;;;35.50;14.00;;;;;;5031228;28;20086;-66
2022/05/14 01:08:59;;;;;;;15.73;2.13;;;35.40;14.20;;;;;;5033589;28;20536;-70
2022/05/14 01:11:29;;;;;;;6.18;1.00;;;35.40;14.30;;;;;;5034134;28;20030;-65
2022/05/14 01:13:56;;;;;;;9.07;1.35;;;35.30;14.20;;;;;;5035072;28;20419;-65
2022/05/14 01:16:23;;;;;;;9.98;1.13;;;35.30;14.70;;;;;;5039164;28;20024;-66
2022/05/14 01:18:50;;;;;;;15.13;1.50;;;35.20;15.00;;;;;;5033801;28;20071;-63
2022/05/14 01:21:38;;;;;;;5.22;1.05;;;35.10;14.30;;;;;;5033509;28;20033;-64
2022/05/14 01:26:59;;;;;;;12.25;1.77;;;34.90;15.00;;;;;;5029510;28;20394;-65
2022/05/14 01:29:26;;;;;;;14.15;1.65;;;34.80;15.10;;;;;;5011685;28;20041;-66
2022/05/14 01:31:54;;;;;;;41.97;3.30;;;34.60;15.00;;;;;;5026741;28;20043;-67
2022/05/14 01:34:24;;;;;;;44.70;3.05;;;34.60;15.50;;;;;;5035874;28;20036;-65
2022/05/14 01:36:51;;;;;;;16.05;1.77;;;34.40;14.40;;;;;;5041655;28;20063;-66
2022/05/14 01:39:18;;;;;;;8.13;1.27;;;34.30;14.90;;;;;;5030508;28;20040;-68
2022/05/14 01:41:45;;;;;;;8.35;1.25;;;34.20;15.30;;;;;;5027614;28;20063;-67
2022/05/14 01:44:12;;;;;;;22.35;1.65;;;34.20;15.50;;;;;;5034465;28;20567;-66
2022/05/14 01:46:38;;;;;;;11.85;1.20;;;34.10;15.00;;;;;;5037138;28;20185;-65
2022/05/14 01:49:05;;;;;;;10.60;1.40;;;34.10;15.80;;;;;;5034535;28;20056;-68
2022/05/14 01:51:32;;;;;;;6.13;0.95;;;34.30;15.30;;;;;;5033365;28;20017;-66
2022/05/14 01:54:00;;;;;;;18.00;9.25;;;34.30;14.80;;;;;;5031972;28;20386;-68
2022/05/14 01:56:26;;;;;;;12.85;3.88;;;34.30;15.50;;;;;;5032678;28;20056;-67
2022/05/14 01:58:53;;;;;;;19.73;13.55;;;34.10;15.60;;;;;;5044056;28;20046;-66
2022/05/14 02:01:19;;;;;;;9.55;5.72;;;33.90;15.30;;;;;;5028746;28;20036;-65
2022/05/14 02:03:49;;;;;;;4.93;1.65;;;33.60;15.00;;;;;;5030429;28;20409;-67
2022/05/14 02:06:16;;;;;;;6.22;1.20;;;33.40;14.50;;;;;;5036524;28;20505;-67
2022/05/14 02:08:43;;;;;;;4.53;1.08;;;33.20;14.70;;;;;;5037629;28;20543;-66
2022/05/14 02:11:10;;;;;;;30.52;2.70;;;33.10;14.80;;;;;;5037536;28;21650;-67
2022/05/14 02:13:37;;;;;;;31.15;2.53;;;32.90;15.50;;;;;;5038292;28;20043;-67
2022/05/14 02:16:04;;;;;;;15.07;1.85;;;32.70;16.10;;;;;;5035385;28;20077;-67
2022/05/14 02:18:31;;;;;;;13.00;2.20;;;32.60;15.40;;;;;;5036156;28;20099;-67
2022/05/14 02:20:57;;;;;;;12.82;2.47;;;32.40;15.50;;;;;;5037039;28;20051;-67
2022/05/14 02:23:23;;;;;;;9.25;1.75;;;32.30;15.90;;;;;;5035079;28;20069;-67
2022/05/14 02:25:50;;;;;;;12.77;1.60;;;32.20;16.10;;;;;;5035094;28;20427;-66
2022/05/14 02:28:17;;;;;;;8.90;1.92;;;32.10;16.10;;;;;;5045937;28;20051;-69
2022/05/14 02:30:44;;;;;;;11.75;1.95;;;32.00;16.20;;;;;;5036810;28;20076;-67
2022/05/14 02:33:11;;;;;;;14.00;1.98;;;31.80;16.10;;;;;;5035652;28;20531;-66
2022/05/14 02:35:38;;;;;;;12.63;2.00;;;31.70;16.50;;;;;;5033633;28;20050;-68
2022/05/14 02:38:05;;;;;;;14.23;1.90;;;31.60;16.40;;;;;;5044180;28;20064;-67
2022/05/14 02:40:32;;;;;;;59.60;5.18;;;31.40;16.80;;;;;;5034211;28;20108;-69
2022/05/14 02:42:58;;;;;;;48.28;5.00;;;31.40;16.90;;;;;;5036259;28;20128;-66
2022/05/14 02:45:25;;;;;;;167.80;10.45;;;31.30;16.70;;;;;;5035057;28;20140;-65
2022/05/14 02:47:51;;;;;;;82.55;5.82;;;31.10;17.10;;;;;;5034288;28;20092;-66
2022/05/14 02:50:19;;;;;;;38.67;4.68;;;31.00;17.20;;;;;;5041169;28;20132;-64
2022/05/14 02:52:46;;;;;;;46.20;4.50;;;30.80;17.80;;;;;;5036694;28;20048;-66
2022/05/14 02:55:13;;;;;;;36.33;4.45;;;30.70;18.10;;;;;;5037372;28;20054;-64
2022/05/14 02:57:39;;;;;;;29.60;3.83;;;30.60;18.80;;;;;;5036643;28;20514;-65
2022/05/14 03:00:08;;;;;;;22.15;3.80;;;30.40;18.50;;;;;;5034138;28;20068;-65
2022/05/14 03:02:36;;;;;;;29.65;4.63;;;30.30;18.90;;;;;;5034244;28;20136;-68
2022/05/14 03:05:03;;;;;;;36.80;4.88;;;30.10;19.20;;;;;;5036538;28;20062;-67
2022/05/14 03:07:29;;;;;;;31.42;5.50;;;30.00;19.50;;;;;;5036557;28;20535;-66
2022/05/14 03:09:56;;;;;;;47.30;5.53;;;29.90;19.50;;;;;;5037100;28;20082;-65
2022/05/14 03:12:24;;;;;;;25.27;5.32;;;29.80;19.70;;;;;;5038846;28;20059;-68
2022/05/14 03:14:51;;;;;;;28.60;5.05;;;29.60;19.50;;;;;;5037510;28;20057;-67
2022/05/14 03:17:18;;;;;;;35.03;5.05;;;29.60;19.40;;;;;;5036647;28;20083;-66
2022/05/14 03:19:45;;;;;;;27.30;4.53;;;29.50;19.30;;;;;;5032311;28;20079;-67
2022/05/14 03:22:12;;;;;;;34.60;4.53;;;29.40;19.50;;;;;;5032071;28;20403;-67
2022/05/14 03:24:38;;;;;;;27.30;4.53;;;29.30;19.50;;;;;;5034260;28;20575;-69
2022/05/14 03:27:06;;;;;;;29.48;4.32;;;29.20;19.70;;;;;;5034013;28;20076;-65
2022/05/14 03:29:33;;;;;;;38.85;4.10;;;29.10;19.30;;;;;;5036204;28;20089;-67
2022/05/14 03:32:00;;;;;;;38.90;5.95;;;29.00;19.40;;;;;;5041221;28;20506;-66
2022/05/14 03:34:27;;;;;;;33.58;4.78;;;28.90;19.40;;;;;;5046291;28;20098;-65
2022/05/14 03:36:54;;;;;;;46.47;5.30;;;28.90;19.50;;;;;;5032592;28;20147;-67
2022/05/14 03:39:20;;;;;;;38.00;5.05;;;28.80;19.50;;;;;;5036295;28;20059;-66
2022/05/14 03:41:47;;;;;;;34.97;5.65;;;28.70;19.50;;;;;;5039386;28;20437;-66
2022/05/14 03:44:13;;;;;;;29.85;5.10;;;28.60;19.60;;;;;;5032013;28;20060;-66
2022/05/14 03:46:40;;;;;;;38.67;6.18;;;28.60;19.90;;;;;;5032107;28;20070;-67
2022/05/14 03:49:06;;;;;;;56.40;7.78;;;28.50;20.30;;;;;;5049161;28;20556;-67
2022/05/14 03:51:32;;;;;;;36.72;6.30;;;28.40;20.40;;;;;;5032484;28;20532;-66
2022/05/14 03:54:00;;;;;;;48.88;6.30;;;28.40;20.50;;;;;;5016097;28;20068;-67
2022/05/14 03:56:26;;;;;;;39.88;7.15;;;28.30;20.50;;;;;;5035151;28;20062;-67
2022/05/14 03:58:53;;;;;;;39.08;6.80;;;28.20;20.80;;;;;;5035467;28;20140;-67
2022/05/14 04:01:19;;;;;;;48.00;6.90;;;28.20;21.00;;;;;;5035771;28;20076;-68
2022/05/14 04:03:46;;;;;;;52.70;7.65;;;28.10;21.00;;;;;;5035286;28;20101;-67
2022/05/14 04:06:12;;;;;;;48.08;6.97;;;28.00;21.10;;;;;;5039447;28;20070;-65
2022/05/14 04:08:39;;;;;;;44.42;6.45;;;27.90;21.10;;;;;;5031285;28;20067;-65
2022/05/14 04:11:06;;;;;;;45.78;6.80;;;27.90;21.20;;;;;;5048253;28;21321;-65
2022/05/14 04:13:33;;;;;;;58.50;8.07;;;27.80;21.30;;;;;;5045763;28;20437;-67
2022/05/14 04:16:00;;;;;;;54.70;8.43;;;27.70;21.40;;;;;;5034565;28;20150;-65
2022/05/14 04:18:26;;;;;;;59.95;8.65;;;27.70;22.00;;;;;;5033118;28;20067;-66
2022/05/14 04:20:55;;;;;;;60.28;8.40;;;27.60;22.00;;;;;;5031498;28;20101;-65
2022/05/14 04:23:23;;;;;;;54.60;7.78;;;27.50;21.80;;;;;;5034528;28;20151;-67
2022/05/14 04:25:50;;;;;;;43.67;8.45;;;27.50;21.90;;;;;;5032314;28;20161;-67
2022/05/14 04:28:18;;;;;;;40.38;8.57;;;27.40;22.30;;;;;;5034600;28;20067;-66
2022/05/14 04:30:46;;;;;;;56.22;8.30;;;27.40;23.00;;;;;;4975402;28;1919295;-66
2022/05/14 04:33:13;;;;;;;54.42;8.65;;;27.30;23.40;;;;;;5035309;28;20094;-67
2022/05/14 04:35:40;;;;;;;67.43;9.65;;;27.20;23.50;;;;;;5030476;28;20084;-65
2022/05/14 04:38:06;;;;;;;54.17;9.05;;;27.20;23.30;;;;;;5054419;28;20077;-67
2022/05/14 04:40:33;;;;;;;58.00;9.63;;;27.10;23.70;;;;;;5032043;28;20450;-66
2022/05/14 04:43:00;;;;;;;61.45;9.02;;;27.10;23.80;;;;;;5046787;28;20159;-66
2022/05/14 04:45:29;;;;;;;61.63;8.88;;;27.00;24.10;;;;;;5034166;28;20060;-66
2022/05/14 04:47:55;;;;;;;49.78;8.70;;;27.00;24.30;;;;;;5030149;28;20081;-66
2022/05/14 04:50:22;;;;;;;55.83;8.13;;;27.00;24.70;;;;;;5032387;28;20524;-65
2022/05/14 04:52:48;;;;;;;43.72;7.53;;;26.90;24.10;;;;;;5035513;28;20151;-65
2022/05/14 04:55:15;;;;;;;69.68;7.85;;;26.80;23.30;;;;;;5032585;28;20120;-65
2022/05/14 04:57:43;;;;;;;54.13;8.10;;;26.70;23.30;;;;;;5034306;28;20067;-66
2022/05/14 05:00:13;;;;;;;49.45;8.63;;;26.60;23.60;;;;;;5034315;28;20163;-67
2022/05/14 05:05:25;;;;;;;48.28;7.90;;;26.60;24.40;;;;;;5035703;28;20100;-66
2022/05/14 05:07:51;;;;;;;49.80;7.70;;;26.50;24.30;;;;;;5018681;28;20478;-63
2022/05/14 05:10:18;;;;;;;49.25;8.25;;;26.50;24.40;;;;;;5032943;28;20082;-63
2022/05/14 05:12:45;;;;;;;43.53;9.23;;;26.50;24.30;;;;;;5033589;28;20155;-67
2022/05/14 05:15:11;;;;;;;42.15;9.15;;;26.50;24.30;;;;;;5024663;28;20112;-64
2022/05/14 05:17:38;;;;;;;47.50;9.05;;;26.40;24.20;;;;;;5032587;28;21488;-64
2022/05/14 05:20:05;;;;;;;50.45;9.75;;;26.30;23.80;;;;;;5031121;28;20124;-66
2022/05/14 05:22:31;;;;;;;41.75;9.70;;;26.30;24.20;;;;;;5027899;28;20150;-64
2022/05/14 05:24:58;;;;;;;55.17;10.23;;;26.30;24.70;;;;;;5032541;28;20086;-64
2022/05/14 05:27:24;;;;;;;52.22;9.77;;;26.20;24.80;;;;;;5034334;28;20092;-65
2022/05/14 05:29:51;;;;;;;61.92;10.45;;;26.20;25.10;;;;;;5031821;28;20162;-65
2022/05/14 05:32:17;;;;;;;59.05;10.18;;;26.20;25.10;;;;;;5034150;28;20083;-64
2022/05/14 05:34:43;;;;;;;51.53;9.98;;;26.10;25.20;;;;;;5033567;28;20082;-65
2022/05/14 05:37:10;;;;;;;57.65;9.82;;;26.10;25.20;;;;;;5031959;28;20100;-64
2022/05/14 05:39:36;;;;;;;57.30;10.13;;;26.10;25.50;;;;;;5029912;28;20157;-64
2022/05/14 05:42:03;;;;;;;45.53;9.30;;;26.00;25.90;;;;;;5032883;28;20591;-64
2022/05/14 05:44:30;;;;;;;53.45;10.63;;;26.00;26.20;;;;;;5034265;28;20128;-64
2022/05/14 05:46:56;;;;;;;49.10;8.88;;;26.00;26.40;;;;;;5036094;28;20074;-64
2022/05/14 05:49:22;;;;;;;46.53;8.60;;;25.90;26.10;;;;;;5036942;28;20086;-65
2022/05/14 05:51:49;;;;;;;47.10;9.25;;;25.90;25.80;;;;;;5035078;28;20075;-65
2022/05/14 05:57:00;;;;;;;42.05;9.25;;;25.70;25.60;;;;;;5036403;28;20118;-64
2022/05/14 05:59:31;;;;;;;42.45;9.02;;;25.70;25.30;;;;;;5035724;28;20082;-63
2022/05/14 06:01:57;;;;;;;39.30;8.93;;;25.70;25.50;;;;;;5036985;28;20513;-65
2022/05/14 06:04:24;;;;;;;42.50;9.15;;;25.60;25.60;;;;;;5029741;28;20544;-65
2022/05/14 06:06:51;;;;;;;40.88;9.13;;;25.70;25.90;;;;;;5035239;28;20525;-63
2022/05/14 06:09:22;;;;;;;56.95;9.52;;;25.60;25.90;;;;;;5036560;28;20075;-67
2022/05/14 06:11:50;;;;;;;46.22;9.48;;;25.50;25.80;;;;;;5034072;28;20072;-65
2022/05/14 06:14:17;;;;;;;51.15;9.55;;;25.40;25.90;;;;;;5038922;28;20574;-65
2022/05/14 06:16:43;;;;;;;45.92;8.40;;;25.40;25.30;;;;;;5039781;28;20175;-64
2022/05/14 06:19:10;;;;;;;44.72;9.02;;;25.40;25.20;;;;;;5033909;28;20071;-64
2022/05/14 06:21:38;;;;;;;57.05;10.25;;;25.40;25.50;;;;;;5036011;28;20137;-66
2022/05/14 06:24:06;;;;;;;41.00;9.20;;;25.40;25.70;;;;;;5035951;28;20077;-65
2022/05/14 06:26:33;;;;;;;44.47;9.13;;;25.30;26.00;;;;;;5035648;28;20071;-64
2022/05/14 06:28:59;;;;;;;51.72;10.38;;;25.30;26.70;;;;;;5037270;28;20549;-64
2022/05/14 06:31:26;;;;;;;45.35;10.52;;;25.20;26.80;;;;;;5036591;28;20546;-67
2022/05/14 06:33:53;;;;;;;54.22;10.02;;;25.20;27.30;;;;;;5036548;28;20522;-65
2022/05/14 06:36:20;;;;;;;50.75;10.05;;;25.20;27.30;;;;;;5056640;28;20111;-65
2022/05/14 06:38:46;;;;;;;47.45;10.95;;;25.10;26.80;;;;;;5035601;28;20350;-64
2022/05/14 06:41:15;;;;;;;55.28;11.55;;;25.10;26.80;;;;;;5031664;28;20571;-66
2022/05/14 06:43:42;;;;;;;55.10;11.13;;;25.10;27.10;;;;;;5035106;28;20487;-65
2022/05/14 06:46:08;;;;;;;58.25;12.80;;;25.00;27.30;;;;;;5018396;28;20170;-63
2022/05/14 06:48:36;;;;;;;52.38;11.27;;;25.00;27.60;;;;;;5036739;28;20099;-65
2022/05/14 06:51:06;;;;;;;48.30;11.75;;;25.00;27.60;;;;;;5037985;28;20083;-64
2022/05/14 06:53:36;;;;;;;55.67;12.45;;;24.90;27.20;;;;;;5037932;28;20107;-65
2022/05/14 06:56:04;;;;;;;54.92;12.35;;;24.90;27.20;;;;;;5035038;28;20080;-64
2022/05/14 06:58:38;;;;;;;60.47;13.70;;;24.90;27.40;;;;;;5033696;28;20073;-65
2022/05/14 07:01:05;;;;;;;43.95;12.50;;;24.90;27.80;;;;;;5050170;28;20526;-65
2022/05/14 07:09:04;;;;;;;68.88;14.68;;;24.70;28.20;;;;;;5037266;28;20094;-65
2022/05/14 07:11:32;;;;;;;63.45;15.90;;;24.60;28.20;;;;;;5036675;28;20080;-65
2022/05/14 07:13:59;;;;;;;68.63;15.77;;;24.60;28.40;;;;;;5032648;28;20073;-66
2022/05/14 07:16:25;;;;;;;61.78;16.25;;;24.70;28.40;;;;;;5044207;28;20088;-66
2022/05/14 07:18:52;;;;;;;65.70;16.77;;;24.70;28.30;;;;;;5059419;28;20076;-67
2022/05/14 07:21:18;;;;;;;76.05;19.10;;;24.70;28.30;;;;;;5043164;28;20564;-65
2022/05/14 07:23:44;;;;;;;65.32;16.58;;;24.70;28.20;;;;;;5028052;28;20445;-67
2022/05/14 07:26:11;;;;;;;67.68;18.85;;;24.70;28.20;;;;;;5043615;28;20094;-66
2022/05/14 07:28:38;;;;;;;75.13;18.52;;;24.70;28.20;;;;;;5043118;28;20078;-68
2022/05/14 07:31:05;;;;;;;59.75;17.08;;;24.70;28.20;;;;;;5041016;28;20174;-66
2022/05/14 07:33:32;;;;;;;70.07;18.02;;;24.80;28.00;;;;;;5042414;28;20166;-66
2022/05/14 07:36:06;;;;;;;64.25;16.77;;;24.80;27.70;;;;;;5039067;28;20063;-66
2022/05/14 07:38:35;;;;;;;65.65;18.67;;;24.70;27.60;;;;;;5042648;28;20066;-66
2022/05/14 07:41:03;;;;;;;66.50;19.15;;;24.70;27.50;;;;;;5044488;28;20080;-66
2022/05/14 07:43:33;;;;;;;84.00;22.70;;;24.70;27.50;;;;;;5043825;28;20080;-67
2022/05/14 07:46:04;;;;;;;78.00;22.88;;;24.60;27.60;;;;;;5044789;28;20071;-66
2022/05/14 07:48:34;;;;;;;83.90;25.92;;;24.60;27.60;;;;;;5043789;28;20210;-65
2022/05/14 07:51:03;;;;;;;125.18;29.27;;;24.50;27.60;;;;;;5044653;28;21094;-64
2022/05/14 07:53:31;;;;;;;133.43;30.58;;;24.50;27.20;;;;;;5042419;28;20464;-65
2022/05/14 07:55:59;;;;;;;150.30;32.33;;;24.50;26.90;;;;;;5042349;28;20139;-67
2022/05/14 07:58:25;;;;;;;182.48;32.05;;;24.40;26.80;;;;;;5041769;28;20125;-63
2022/05/14 08:00:52;;;;;;;154.23;28.63;;;24.40;26.70;;;;;;5043715;28;20073;-67
2022/05/14 08:03:23;;;;;;;125.93;25.95;;;24.40;26.70;;;;;;5042672;28;20092;-63
2022/05/14 08:05:56;;;;;;;125.03;25.65;;;24.40;26.00;;;;;;5038990;28;20532;-65
2022/05/14 08:08:23;;;;;;;124.75;24.17;;;24.30;26.90;;;;;;5040384;28;20091;-64
2022/05/14 08:10:51;;;;;;;84.43;22.52;;;24.30;26.10;;;;;;5040264;28;20466;-63
2022/05/14 08:13:22;;;;;;;72.57;18.15;;;24.30;26.90;;;;;;5039317;28;20178;-64
2022/05/14 08:15:50;;;;;;;74.35;17.90;;;24.30;26.90;;;;;;5025224;28;20168;-66
2022/05/14 08:18:20;;;;;;;91.90;18.98;;;24.20;26.90;;;;;;5041922;28;20163;-64
2022/05/14 08:20:50;;;;;;;63.35;15.88;;;24.20;26.90;;;;;;5044161;28;20062;-64
2022/05/14 08:26:01;;;;;;;73.07;17.02;;;24.10;26.90;;;;;;5045612;28;20083;-63
2022/05/14 08:28:29;;;;;;;60.55;15.52;;;24.00;26.70;;;;;;5041047;28;20530;-64
2022/05/14 08:30:55;;;;;;;72.43;14.93;;;24.00;27.10;;;;;;5042845;28;20509;-64
2022/05/14 08:33:22;;;;;;;50.92;12.63;;;23.90;27.20;;;;;;5043325;28;20093;-65
2022/05/14 08:35:49;;;;;;;56.47;11.90;;;23.90;26.90;;;;;;5040224;28;20094;-65
2022/05/14 08:38:17;;;;;;;48.53;12.20;;;23.90;27.00;;;;;;5040512;28;20515;-65
2022/05/14 08:40:57;;;;;;;48.70;11.27;;;23.80;26.90;;;;;;5040564;28;20528;-62
2022/05/14 08:44:02;;;;;;;48.70;9.73;;;23.70;26.50;;;;;;5041232;28;20541;-63
2022/05/14 08:46:37;;;;;;;44.33;10.63;;;23.70;26.20;;;;;;5039932;28;20099;-65
2022/05/14 08:49:18;;;;;;;47.38;10.60;;;23.60;27.00;;;;;;5043264;28;20094;-63
2022/05/14 08:51:49;;;;;;;37.42;10.07;;;23.50;26.40;;;;;;5035836;28;20067;-62
2022/05/14 08:54:16;;;;;;;31.70;9.10;;;23.40;26.70;;;;;;5040816;28;20558;-64
2022/05/14 08:57:12;;;;;;;40.33;10.73;;;23.40;27.50;;;;;;5040407;28;20102;-64
2022/05/14 08:59:51;;;;;;;36.42;10.13;;;23.40;26.80;;;;;;5026927;28;20448;-64
2022/05/14 09:02:38;;;;;;;42.30;10.35;;;23.30;26.80;;;;;;5040561;28;20111;-64
2022/05/14 09:05:08;;;;;;;36.97;9.07;;;23.40;27.70;;;;;;5019681;28;20088;-64
2022/05/14 09:07:36;;;;;;;47.35;10.00;;;23.40;28.20;;;;;;5041534;28;20130;-64
2022/05/14 09:10:06;;;;;;;35.40;8.70;;;23.30;28.00;;;;;;5023819;28;20286;-66
2022/05/14 09:12:35;;;;;;;49.53;10.65;;;23.30;28.50;;;;;;5021639;28;20083;-64
2022/05/14 09:15:12;;;;;;;37.83;9.60;;;23.20;28.60;;;;;;5037328;28;21051;-61
2022/05/14 09:17:39;;;;;;;42.42;9.85;;;23.20;28.50;;;;;;5024287;28;20072;-63
2022/05/14 09:20:06;;;;;;;47.20;10.48;;;23.10;28.30;;;;;;5038223;28;20076;-64
2022/05/14 09:22:40;;;;;;;39.25;9.88;;;23.00;28.50;;;;;;5040025;28;20078;-63
2022/05/14 09:25:15;;;;;;;44.70;9.98;;;23.00;28.70;;;;;;5039923;28;20104;-62
2022/05/14 09:28:14;;;;;;;45.80;9.48;;;23.00;29.30;;;;;;5042230;28;21481;-63
2022/05/14 09:30:55;;;;;;;44.50;11.63;;;22.90;28.70;;;;;;5004088;28;20773;-65
2022/05/14 09:33:38;;;;;;;45.25;10.02;;;22.90;28.70;;;;;;5038524;28;20080;-64
2022/05/14 09:36:05;;;;;;;38.17;9.80;;;22.80;28.50;;;;;;5038732;28;20118;-62
2022/05/14 09:38:32;;;;;;;39.33;9.10;;;22.70;28.40;;;;;;5039536;28;20153;-64
2022/05/14 09:41:21;;;;;;;34.40;9.60;;;22.70;28.60;;;;;;5040330;28;20182;-66
2022/05/14 09:43:53;;;;;;;36.22;9.77;;;22.70;29.10;;;;;;5038135;28;20076;-66
2022/05/14 09:46:33;;;;;;;44.15;9.57;;;22.70;29.40;;;;;;5039629;28;20064;-64
2022/05/14 09:49:08;;;;;;;49.50;9.98;;;22.70;29.40;;;;;;5040829;28;20084;-63
2022/05/14 09:51:47;;;;;;;53.30;11.10;;;22.70;30.00;;;;;;5035650;28;20103;-64
2022/05/14 09:54:22;;;;;;;33.15;9.48;;;22.70;29.80;;;;;;5039332;28;20072;-62
2022/05/14 09:57:30;;;;;;;36.42;8.23;;;22.70;30.30;;;;;;5039987;28;20068;-65
2022/05/14 10:00:16;;;;;;;46.78;9.65;;;22.60;29.80;;;;;;5008635;28;20080;-64
2022/05/14 10:02:51;;;;;;;37.72;9.45;;;22.60;29.50;;;;;;5006994;28;20146;-64
2022/05/14 10:05:39;;;;;;;37.65;8.82;;;22.50;30.00;;;;;;5004916;28;20167;-65
2022/05/14 10:08:16;;;;;;;32.85;8.32;;;22.50;29.90;;;;;;4990175;28;20072;-64
2022/05/14 10:11:24;;;;;;;31.77;8.38;;;22.40;30.20;;;;;;5021358;28;20653;-62
2022/05/14 10:14:10;;;;;;;45.45;9.02;;;22.40;30.50;;;;;;5005350;28;20073;-64
2022/05/14 10:16:45;;;;;;;40.65;8.27;;;22.40;30.80;;;;;;5006508;28;20069;-64
2022/05/14 10:19:39;;;;;;;33.70;8.50;;;22.30;30.00;;;;;;5021887;28;20143;-63
2022/05/14 10:26:44;;;;;;;34.60;8.45;;;22.30;29.90;;;;;;5006128;28;20575;-63
2022/05/14 10:28:23;;;;;;;35.08;7.15;;;22.10;30.60;;;;;;5022304;28;20143;-63
2022/05/14 10:31:02;;;;;;;33.80;7.57;;;21.90;29.80;;;;;;5005755;28;20109;-63
2022/05/14 10:33:32;;;;;;;34.35;7.93;;;21.90;29.80;;;;;;5007458;28;20071;-63
2022/05/14 10:36:33;;;;;;;34.55;6.90;;;21.90;30.40;;;;;;5014866;28;20081;-63
2022/05/14 10:39:12;;;;;;;33.55;7.53;;;21.80;29.90;;;;;;5023283;28;21117;-64
2022/05/14 10:42:16;;;;;;;36.90;7.15;;;21.80;29.70;;;;;;5013846;28;20583;-64
2022/05/14 10:44:51;;;;;;;27.40;7.47;;;21.80;29.60;;;;;;5042273;28;20087;-64
2022/05/14 10:47:19;;;;;;;39.58;7.88;;;21.80;30.00;;;;;;5029643;28;20096;-64
2022/05/14 10:49:53;;;;;;;36.88;7.88;;;21.90;30.00;;;;;;5042149;28;20569;-63
2022/05/14 10:52:20;;;;;;;28.40;7.68;;;21.90;29.90;;;;;;5043099;28;20183;-63
2022/05/14 10:54:47;;;;;;;29.42;7.85;;;21.90;29.90;;;;;;5042836;28;20068;-63
2022/05/14 10:57:14;;;;;;;30.70;7.43;;;21.90;30.00;;;;;;5042101;28;20092;-67
2022/05/14 10:59:48;;;;;;;31.42;8.80;;;21.90;30.50;;;;;;5043781;28;20103;-65
2022/05/14 11:02:28;;;;;;;32.97;7.70;;;21.90;29.70;;;;;;5040863;28;20416;-63
2022/05/14 11:04:54;;;;;;;29.85;7.60;;;21.80;29.30;;;;;;5051761;28;20546;-62
2022/05/14 11:07:32;;;;;;;28.65;7.57;;;21.70;28.80;;;;;;5026168;28;20076;-64
2022/05/14 11:10:22;;;;;;;31.25;7.57;;;21.80;29.70;;;;;;5041063;28;20100;-64
2022/05/14 11:12:50;;;;;;;29.00;7.30;;;21.70;29.40;;;;;;5044763;28;20061;-65
2022/05/14 11:15:27;;;;;;;38.38;9.15;;;21.60;29.10;;;;;;5043551;28;20067;-63
2022/05/14 11:18:09;;;;;;;36.63;8.35;;;21.60;29.60;;;;;;5042205;28;20092;-62
2022/05/14 11:20:37;;;;;;;42.53;9.02;;;21.70;30.00;;;;;;5041684;28;20083;-63
2022/05/14 11:23:13;;;;;;;39.75;10.00;;;21.60;28.80;;;;;;5041184;28;20088;-64
2022/05/14 11:25:40;;;;;;;32.63;8.30;;;21.70;28.60;;;;;;5044463;28;20084;-63
2022/05/14 11:28:17;;;;;;;33.90;8.63;;;21.60;28.30;;;;;;5042944;28;20438;-64
2022/05/14 11:30:49;;;;;;;38.25;8.63;;;21.60;28.50;;;;;;5043921;28;20570;-65
2022/05/14 11:33:46;;;;;;;31.25;8.43;;;21.60;28.90;;;;;;5041157;28;20158;-64
2022/05/14 11:36:12;;;;;;;35.65;8.38;;;21.70;29.90;;;;;;5030204;28;20219;-63
2022/05/14 11:38:47;;;;;;;33.40;7.57;;;21.70;30.00;;;;;;5040146;28;20099;-63
2022/05/14 11:41:37;;;;;;;32.97;8.57;;;21.70;30.00;;;;;;5022764;28;20087;-64
2022/05/14 11:44:06;;;;;;;29.08;6.70;;;21.70;30.10;;;;;;5042091;28;20088;-64
2022/05/14 11:46:48;;;;;;;26.85;7.88;;;21.70;30.00;;;;;;5024450;28;20096;-62
2022/05/14 11:49:41;;;;;;;33.17;7.80;;;21.70;29.90;;;;;;5042580;28;20084;-63
2022/05/14 11:52:17;;;;;;;28.17;7.47;;;21.60;29.60;;;;;;5043996;28;20080;-63
2022/05/14 11:54:59;;;;;;;30.48;7.80;;;21.50;29.10;;;;;;5041178;28;20080;-63
2022/05/14 11:57:34;;;;;;;28.48;8.02;;;21.40;28.70;;;;;;5041147;28;20131;-62
2022/05/14 12:00:08;;;;;;;34.92;7.45;;;21.50;29.50;;;;;;5042648;28;20549;-63
2022/05/14 12:02:57;;;;;;;28.30;7.25;;;21.50;30.30;;;;;;5040242;28;20087;-63
2022/05/14 12:05:51;;;;;;;28.65;7.70;;;21.50;29.90;;;;;;5038890;28;20081;-62
2022/05/14 12:08:38;;;;;;;32.17;7.78;;;21.40;29.50;;;;;;5036979;28;20088;-62
2022/05/14 12:11:28;;;;;;;30.05;8.27;;;21.40;29.30;;;;;;5038834;28;20175;-63
2022/05/14 12:14:09;;;;;;;32.22;7.60;;;21.40;29.10;;;;;;5024991;28;20330;-63
2022/05/14 12:16:50;;;;;;;30.35;7.70;;;21.40;30.00;;;;;;5038478;28;20103;-62
2022/05/14 12:19:23;;;;;;;25.58;8.25;;;21.40;30.50;;;;;;5039728;28;20138;-64
2022/05/14 12:22:01;;;;;;;29.23;7.55;;;21.40;30.20;;;;;;5039357;28;20065;-64
2022/05/14 12:24:31;;;;;;;31.42;7.50;;;21.20;29.20;;;;;;5041049;28;20080;-63
2022/05/14 12:26:58;;;;;;;21.40;6.97;;;21.20;29.50;;;;;;5041154;28;20538;-63
2022/05/14 12:29:33;;;;;;;29.55;7.13;;;21.20;29.20;;;;;;5041638;28;20111;-63
2022/05/14 12:34:48;;;;;;;24.35;6.72;;;21.20;29.10;;;;;;5042858;28;20084;-63
2022/05/14 12:37:23;;;;;;;29.58;6.85;;;21.20;28.60;;;;;;5038690;28;20075;-67
2022/05/14 12:39:52;;;;;;;32.58;7.50;;;21.20;29.50;;;;;;5039671;28;21529;-65
2022/05/14 12:42:40;;;;;;;33.65;7.93;;;21.10;29.10;;;;;;5040737;28;20077;-63
2022/05/14 12:45:09;;;;;;;30.65;7.70;;;21.20;29.90;;;;;;5041016;28;20080;-65
2022/05/14 12:47:39;;;;;;;34.65;9.40;;;21.20;30.00;;;;;;5022069;28;20103;-65
2022/05/14 12:50:21;;;;;;;41.92;9.15;;;21.10;30.20;;;;;;5040984;28;20143;-63
2022/05/14 12:53:08;;;;;;;41.38;7.82;;;21.10;30.80;;;;;;5040205;28;20104;-64
2022/05/14 12:55:51;;;;;;;29.98;8.07;;;21.20;30.30;;;;;;5038026;28;20527;-64
2022/05/14 12:58:19;;;;;;;41.75;8.48;;;21.10;30.20;;;;;;5039634;28;20130;-64
2022/05/14 13:00:50;;;;;;;34.85;8.88;;;21.00;30.70;;;;;;5038983;28;20072;-63
2022/05/14 13:03:31;;;;;;;43.30;8.38;;;20.90;30.60;;;;;;5039426;28;20073;-65
2022/05/14 13:06:04;;;;;;;32.95;8.15;;;21.00;31.30;;;;;;5039955;28;20175;-64
2022/05/14 13:08:32;;;;;;;46.45;10.05;;;21.00;32.00;;;;;;5039548;28;20118;-63
2022/05/14 13:11:02;;;;;;;45.47;9.95;;;21.00;32.10;;;;;;5041950;28;20080;-65
2022/05/14 13:13:33;;;;;;;46.53;10.50;;;21.00;32.60;;;;;;5040338;28;20069;-63
2022/05/14 13:15:59;;;;;;;47.95;9.80;;;20.90;31.70;;;;;;5041726;28;20122;-63
2022/05/14 13:18:32;;;;;;;50.70;9.50;;;20.90;31.40;;;;;;5040982;28;20161;-64
2022/05/14 13:21:07;;;;;;;36.60;10.45;;;21.00;32.50;;;;;;5053177;28;20097;-64